createdAt,value
2023-05-08T00:04:10.897Z,59.22
2023-05-08T00:09:14.946Z,54.43
2023-05-08T00:14:18.476Z,51.73
2023-05-08T00:19:21.576Z,51.44
2023-05-08T00:24:25.351Z,45.58
2023-05-08T00:29:28.946Z,52.53
2023-05-08T00:34:32.660Z,52.35
2023-05-08T00:39:36.624Z,50.17
2023-05-08T00:44:40.508Z,51.93
2023-05-08T00:49:44.303Z,49.11
2023-05-08T00:54:48.915Z,52.57
2023-05-08T00:59:54.635Z,53.89
2023-05-08T01:04:58.872Z,53.24
2023-05-08T01:10:02.705Z,50.88
2023-05-08T01:15:44.103Z,50.69
2023-05-08T01:21:09.779Z,50.99
2023-05-08T01:26:41.853Z,49.43
2023-05-08T01:32:10.762Z,47.79
2023-05-08T01:37:18.180Z,48.35
2023-05-08T01:42:45.144Z,47.59
2023-05-08T01:47:59.332Z,46.04
2023-05-08T01:53:18.520Z,46.61
2023-05-08T01:58:25.106Z,47.08
2023-05-08T02:03:32.166Z,49.61
2023-05-08T02:08:37.687Z,50.08
2023-05-08T02:13:43.075Z,50.51
2023-05-08T02:18:52.199Z,50.39
2023-05-08T02:23:58.702Z,47.75
2023-05-08T02:29:04.344Z,47.24
2023-05-08T02:34:10.489Z,52.50
2023-05-08T02:39:16.546Z,54.39
2023-05-08T02:44:21.018Z,56.74
2023-05-08T02:49:45.545Z,58.29
2023-05-08T02:54:59.431Z,60.09
2023-05-08T03:00:17.273Z,58.22
2023-05-08T03:05:30.852Z,59.40
2023-05-08T03:10:35.836Z,59.22
2023-05-08T03:15:55.864Z,58.81
2023-05-08T03:21:02.126Z,59.21
2023-05-08T03:26:06.620Z,55.84
2023-05-08T03:31:12.879Z,52.81
2023-05-08T03:36:18.908Z,52.36
2023-05-08T03:41:23.236Z,53.05
2023-05-08T03:46:27.386Z,51.69
2023-05-08T03:51:33.261Z,51.11
2023-05-08T03:56:37.717Z,52.99
2023-05-08T04:01:52.977Z,52.16
2023-05-08T04:07:08.766Z,54.08
2023-05-08T04:12:57.953Z,55.49
2023-05-08T04:18:15.522Z,57.88
2023-05-08T04:23:22.743Z,59.49
2023-05-08T04:28:27.974Z,61.39
2023-05-08T04:33:31.995Z,60.84
2023-05-08T04:38:40.078Z,58.70
2023-05-08T04:43:44.705Z,59.59
2023-05-08T04:48:49.140Z,59.71
2023-05-08T04:53:54.246Z,60.41
2023-05-08T04:58:57.435Z,62.44
2023-05-08T05:04:01.483Z,62.68
2023-05-08T05:09:05.544Z,61.88
2023-05-08T05:14:09.412Z,65.99
2023-05-08T05:19:13.023Z,69.19
2023-05-08T05:24:18.549Z,69.04
2023-05-08T05:29:21.955Z,67.79
2023-05-08T05:34:26.619Z,65.19
2023-05-08T05:39:29.952Z,64.04
2023-05-08T05:44:34.820Z,64.43
2023-05-08T05:49:39.951Z,63.00
2023-05-08T05:54:43.615Z,64.15
2023-05-08T05:59:46.909Z,62.12
2023-05-08T06:04:52.697Z,61.45
2023-05-08T06:09:56.893Z,63.96
2023-05-08T06:15:01.248Z,61.94
2023-05-08T06:20:05.035Z,59.95
2023-05-08T06:25:10.128Z,58.66
2023-05-08T06:30:13.956Z,55.39
2023-05-08T06:35:20.998Z,56.06
2023-05-08T06:40:24.334Z,57.77
2023-05-08T06:45:27.890Z,59.06
2023-05-08T06:50:31.532Z,58.71
2023-05-08T06:55:35.664Z,58.45
2023-05-08T07:00:38.919Z,57.59
2023-05-08T07:05:42.249Z,54.42
2023-05-08T07:10:46.118Z,48.91
2023-05-08T07:15:50.187Z,46.90
2023-05-08T07:20:53.853Z,45.18
2023-05-08T07:25:58.305Z,47.72
2023-05-08T07:31:07.344Z,48.02
2023-05-08T07:36:11.330Z,49.45
2023-05-08T07:41:14.931Z,49.69
2023-05-08T07:46:19.287Z,48.80
2023-05-08T07:51:23.406Z,52.73
2023-05-08T07:56:28.811Z,52.48
2023-05-08T08:01:35.391Z,52.26
2023-05-08T08:06:39.121Z,52.58
2023-05-08T08:11:42.959Z,52.32
2023-05-08T08:16:46.861Z,52.60
2023-05-08T08:21:50.206Z,53.85
2023-05-08T08:26:54.411Z,43.04
2023-05-08T08:31:58.633Z,43.36
2023-05-08T08:37:02.731Z,42.14
2023-05-08T08:42:07.004Z,42.34
2023-05-08T08:47:15.047Z,41.48
2023-05-08T08:52:28.592Z,41.09
2023-05-08T08:57:35.710Z,42.38
2023-05-08T09:02:40.400Z,41.29
2023-05-08T09:07:45.188Z,38.77
2023-05-08T09:12:48.906Z,40.82
2023-05-08T09:17:52.162Z,41.87
2023-05-08T09:22:56.166Z,46.33
2023-05-08T09:28:16.712Z,46.54
2023-05-08T09:33:21.331Z,46.94
2023-05-08T09:38:38.984Z,46.37
2023-05-08T09:44:00.486Z,45.79
2023-05-08T09:49:04.789Z,48.33
2023-05-08T09:54:18.481Z,47.25
2023-05-08T09:59:33.919Z,56.26
2023-05-08T10:04:39.092Z,69.85
2023-05-08T10:09:59.382Z,76.89
2023-05-08T10:15:02.917Z,80.56
2023-05-08T10:20:08.754Z,85.82
2023-05-08T10:25:18.088Z,86.40
2023-05-08T10:30:26.228Z,93.21
2023-05-08T10:35:32.250Z,94.57
2023-05-08T10:40:36.989Z,97.86
2023-05-08T10:45:41.292Z,91.67
2023-05-08T10:51:28.996Z,95.04
2023-05-08T10:56:32.481Z,98.08
2023-05-08T11:01:39.494Z,98.02
2023-05-08T11:06:49.548Z,94.64
2023-05-08T11:12:08.067Z,93.01
2023-05-08T11:17:11.714Z,88.99
2023-05-08T11:22:17.821Z,82.58
2023-05-08T11:27:41.189Z,83.21
2023-05-08T11:33:07.837Z,78.62
2023-05-08T11:38:16.694Z,81.15
2023-05-08T11:43:27.684Z,80.57
2023-05-08T11:48:33.234Z,77.81
2023-05-08T11:53:38.104Z,75.89
2023-05-08T11:58:41.793Z,76.46
2023-05-08T12:03:45.881Z,75.27
2023-05-08T12:08:49.767Z,74.07
2023-05-08T12:13:55.224Z,72.00
2023-05-08T12:18:59.189Z,74.54
2023-05-08T12:24:07.512Z,68.71
2023-05-08T12:29:10.637Z,70.89
2023-05-08T12:34:14.541Z,70.00
2023-05-08T12:39:19.557Z,69.71
2023-05-08T12:44:25.753Z,66.19
2023-05-08T12:49:33.205Z,61.53
2023-05-08T12:54:41.482Z,61.63
2023-05-08T12:59:46.686Z,60.31
2023-05-08T13:04:58.289Z,65.45
2023-05-08T13:10:06.175Z,68.61
2023-05-08T13:15:10.402Z,70.48
2023-05-08T13:20:14.633Z,72.38
2023-05-08T13:25:18.436Z,74.11
2023-05-08T13:30:22.658Z,70.23
2023-05-08T13:35:26.365Z,67.76
2023-05-08T13:40:30.590Z,65.20
2023-05-08T13:45:34.263Z,67.24
2023-05-08T13:50:37.651Z,64.58
2023-05-08T13:55:42.550Z,65.28
2023-05-08T14:00:46.973Z,65.06
2023-05-08T14:05:50.601Z,67.88
2023-05-08T14:10:54.324Z,66.13
2023-05-08T14:15:58.169Z,68.43
2023-05-08T14:21:02.262Z,65.51
2023-05-08T14:26:05.939Z,66.45
2023-05-08T14:31:09.647Z,67.69
2023-05-08T14:36:12.891Z,68.86
2023-05-08T14:41:16.191Z,71.01
2023-05-08T14:46:20.249Z,70.44
2023-05-08T14:51:24.289Z,65.56
2023-05-08T14:56:30.198Z,65.44
2023-05-08T15:01:36.793Z,65.74
2023-05-08T15:06:41.915Z,66.35
2023-05-08T15:11:45.791Z,65.45
2023-05-08T15:16:50.060Z,67.64
2023-05-08T15:21:54.369Z,67.57
2023-05-08T15:26:58.490Z,65.41
2023-05-08T15:32:02.084Z,66.59
2023-05-08T15:37:06.531Z,68.75
2023-05-08T15:42:11.067Z,69.77
2023-05-08T15:47:15.274Z,71.06
2023-05-08T15:52:20.197Z,70.86
2023-05-08T15:57:27.267Z,73.16
2023-05-08T16:02:31.588Z,71.80
2023-05-08T16:07:35.414Z,74.19
2023-05-08T16:12:39.353Z,74.42
2023-05-08T16:17:43.226Z,75.28
2023-05-08T16:22:47.431Z,78.99
2023-05-08T16:27:51.987Z,78.26
2023-05-08T16:32:56.131Z,81.69
2023-05-08T16:38:00.003Z,85.42
2023-05-08T16:43:04.192Z,83.75
2023-05-08T16:48:07.429Z,85.93
2023-05-08T16:53:11.164Z,90.67
2023-05-08T16:58:16.309Z,94.08
2023-05-08T17:03:20.372Z,93.47
2023-05-08T17:08:24.670Z,96.63
2023-05-08T17:13:28.122Z,95.82
2023-05-08T17:18:33.884Z,98.11
2023-05-08T17:23:38.027Z,99.34
2023-05-08T17:28:41.482Z,100.00
2023-05-08T17:33:44.836Z,100.00
2023-05-08T17:38:50.737Z,100.00
2023-05-08T17:43:54.406Z,100.00
2023-05-08T17:48:57.697Z,100.00
2023-05-08T17:54:02.140Z,100.00
2023-05-08T17:59:06.381Z,100.00
2023-05-08T18:04:10.119Z,100.00
2023-05-08T18:09:14.210Z,100.00
2023-05-08T18:14:18.013Z,100.00
2023-05-08T18:19:21.867Z,100.00
2023-05-08T18:24:25.745Z,100.00
2023-05-08T18:29:29.368Z,100.00
2023-05-08T18:34:33.268Z,100.00
2023-05-08T18:39:37.071Z,100.00
2023-05-08T18:44:40.714Z,100.00
2023-05-08T18:49:44.514Z,100.00
2023-05-08T18:54:48.770Z,100.00
2023-05-08T18:59:52.961Z,100.00
2023-05-08T19:04:57.003Z,100.00
2023-05-08T19:10:00.825Z,100.00
2023-05-08T19:15:04.144Z,100.00
2023-05-08T19:20:08.541Z,100.00
2023-05-08T19:25:12.982Z,100.00
2023-05-08T19:30:16.785Z,100.00
2023-05-08T19:35:21.421Z,100.00
2023-05-08T19:40:24.540Z,100.00
2023-05-08T19:45:27.637Z,100.00
2023-05-08T19:50:31.786Z,100.00
2023-05-08T19:55:36.055Z,100.00
2023-05-08T20:00:39.628Z,100.00
2023-05-08T20:05:42.924Z,100.00
2023-05-08T20:10:50.052Z,100.00
2023-05-08T20:15:54.432Z,100.00
2023-05-08T20:20:58.445Z,100.00
2023-05-08T20:26:02.542Z,100.00
2023-05-08T20:31:06.606Z,100.00
2023-05-08T20:36:10.447Z,100.00
2023-05-08T20:41:13.556Z,100.00
2023-05-08T20:46:16.708Z,100.00
2023-05-08T20:51:20.133Z,100.00
2023-05-08T20:56:23.875Z,100.00
2023-05-08T21:01:27.733Z,100.00
2023-05-08T21:06:31.511Z,100.00
2023-05-08T21:11:36.035Z,100.00
2023-05-08T21:16:39.723Z,99.66
2023-05-08T21:21:45.307Z,94.37
2023-05-08T21:26:48.999Z,90.56
2023-05-08T21:31:52.944Z,90.71
2023-05-08T21:36:56.314Z,91.37
2023-05-08T21:42:00.414Z,93.59
2023-05-08T21:47:04.460Z,87.48
2023-05-08T21:52:08.379Z,92.81
2023-05-08T21:57:12.033Z,93.67
2023-05-08T22:02:16.862Z,95.34
2023-05-08T22:07:21.665Z,95.57
2023-05-08T22:12:25.449Z,94.10
2023-05-08T22:17:29.948Z,93.21
2023-05-08T22:22:33.825Z,90.61
2023-05-08T22:27:37.448Z,90.82
2023-05-08T22:32:40.699Z,91.22
2023-05-08T22:37:44.217Z,88.80
2023-05-08T22:42:47.973Z,88.72
2023-05-08T22:47:51.701Z,87.56
2023-05-08T22:52:55.968Z,87.34
2023-05-08T22:57:59.642Z,88.24
2023-05-08T23:03:03.884Z,86.86
2023-05-08T23:08:07.549Z,86.80
2023-05-08T23:13:11.308Z,88.10
2023-05-08T23:18:15.147Z,88.70
2023-05-08T23:23:18.882Z,88.47
2023-05-08T23:28:22.626Z,88.05
2023-05-08T23:33:25.898Z,89.59
2023-05-08T23:38:29.840Z,91.41
2023-05-08T23:43:33.610Z,89.62
2023-05-08T23:48:37.157Z,90.75
2023-05-08T23:53:41.028Z,92.11
2023-05-08T23:58:45.303Z,93.86
